Time;durP1;ratioP1;P1;durP2;ratioP2;P2;SDS_P1;SDS_P2;PMS_P1;PMS_P2;Temp;Humidity;BMP_temperature;BMP_pressure;BME280_temperature;BME280_humidity;BME280_pressure;Samples;Min_cycle;Max_cycle;Signal;HPM_P1;HPM_P2
2022/01/26 00:00:18;;;;;;;98.05;52.38;;;;;;;;;;4424151;32;20044;-71
2022/01/26 00:05:49;;;;;;;101.97;52.22;;;;;;;;;;4422994;32;20401;-71
2022/01/26 00:08:14;;;;;;;102.20;51.37;;;;;;;;;;4423695;32;20068;-71
2022/01/26 00:10:39;;;;;;;;;;;;;;;;;;4424688;32;20346;-71
2022/01/26 00:13:05;;;;;;;90.62;47.67;;;;;;;;;;4424608;32;20287;-71
2022/01/26 00:15:31;;;;;;;;;;;;;;;;;;4424563;32;20048;-71
2022/01/26 00:17:57;;;;;;;99.78;50.10;;;;;;;;;;4408286;32;20350;-71
2022/01/26 00:20:38;;;;;;;;;;;;;;;;;;4422600;32;20076;-71
2022/01/26 00:23:31;;;;;;;99.13;49.63;;;;;;;;;;4401976;32;19948;-72
2022/01/26 00:28:34;;;;;;;97.15;49.67;;;;;;;;;;4422219;32;20030;-71
2022/01/26 00:39:11;;;;;;;96.90;50.65;;;;;;;;;;4422926;32;20044;-71
2022/01/26 00:41:39;;;;;;;;;;;;;;;;;;4423111;32;20062;-72
2022/01/26 00:44:05;;;;;;;98.70;49.83;;;;;;;;;;4422983;32;19933;-71
2022/01/26 00:46:31;;;;;;;101.45;50.42;;;;;;;;;;4422107;32;20099;-71
2022/01/26 00:48:56;;;;;;;;;;;;;;;;;;4422748;32;20085;-71
2022/01/26 00:51:22;;;;;;;97.70;51.15;;;;;;;;;;4419911;32;20300;-71
2022/01/26 00:53:53;;;;;;;;;;;;;;;;;;4408932;32;20174;-72
2022/01/26 00:56:18;;;;;;;102.55;52.60;;;;;;;;;;4408364;32;20283;-72
2022/01/26 00:58:43;;;;;;;;;;;;;;;;;;4423233;32;20048;-71
2022/01/26 01:01:08;;;;;;;109.93;54.35;;;;;;;;;;4407891;32;19937;-71
2022/01/26 01:03:36;;;;;;;;;;;;;;;;;;4407842;32;20034;-70
2022/01/26 01:06:06;;;;;;;110.10;54.00;;;;;;;;;;4421824;32;19933;-71
2022/01/26 01:08:31;;;;;;;113.90;56.78;;;;;;;;;;4421501;32;20068;-71
2022/01/26 01:10:56;;;;;;;;;;;;;;;;;;4422779;32;20065;-72
2022/01/26 01:13:30;;;;;;;108.07;50.90;;;;;;;;;;4408778;32;19978;-71
2022/01/26 01:15:55;;;;;;;113.40;56.35;;;;;;;;;;4408026;32;20366;-72
2022/01/26 01:18:37;;;;;;;;;;;;;;;;;;4422813;32;20022;-71
2022/01/26 01:21:52;;;;;;;114.00;55.97;;;;;;;;;;4423366;32;19948;-72
2022/01/26 01:31:47;;;;;;;114.43;54.50;;;;;;;;;;4421828;32;20061;-72
2022/01/26 01:34:14;;;;;;;115.25;53.83;;;;;;;;;;4407460;32;20153;-71
2022/01/26 01:36:40;;;;;;;114.72;55.92;;;;;;;;;;4423107;32;20101;-73
2022/01/26 01:39:07;;;;;;;;;;;;;;;;;;4422433;32;20060;-71
2022/01/26 01:41:32;;;;;;;115.05;55.12;;;;;;;;;;4420950;32;19945;-71
2022/01/26 01:43:57;;;;;;;;;;;;;;;;;;4422745;32;20086;-71
2022/01/26 01:46:23;;;;;;;114.75;53.58;;;;;;;;;;4422781;32;19989;-71
2022/01/26 01:48:48;;;;;;;;;;;;;;;;;;4399647;32;20348;-72
2022/01/26 01:51:16;;;;;;;118.13;53.55;;;;;;;;;;4406905;32;20350;-71
2022/01/26 01:53:43;;;;;;;126.25;58.35;;;;;;;;;;4393724;32;20027;-71
2022/01/26 01:56:09;;;;;;;120.18;58.10;;;;;;;;;;4406948;32;20057;-71
2022/01/26 01:58:34;;;;;;;;;;;;;;;;;;4408024;32;20026;-70
2022/01/26 02:01:00;;;;;;;118.93;56.00;;;;;;;;;;4406051;32;19967;-72
2022/01/26 02:03:25;;;;;;;;;;;;;;;;;;4417335;32;20022;-71
2022/01/26 02:05:50;;;;;;;121.95;54.28;;;;;;;;;;4420997;32;19951;-71
2022/01/26 02:08:16;;;;;;;;;;;;;;;;;;4421125;32;20061;-72
2022/01/26 02:10:42;;;;;;;131.63;59.63;;;;;;;;;;4421901;32;20219;-71
2022/01/26 02:13:16;;;;;;;135.98;58.75;;;;;;;;;;4407581;32;20073;-71
2022/01/26 02:56:23;;;;;;;132.77;57.50;;;;;;;;;;4406991;32;20411;-71
2022/01/26 02:59:09;;;;;;;132.02;60.65;;;;;;;;;;4393038;32;20153;-71
2022/01/26 03:04:19;;;;;;;129.23;56.63;;;;;;;;;;4420209;32;20118;-71
2022/01/26 03:09:25;;;;;;;130.15;58.80;;;;;;;;;;4420814;32;20022;-71
2022/01/26 03:11:50;;;;;;;124.43;56.83;;;;;;;;;;4422256;32;20391;-70
2022/01/26 03:16:50;;;;;;;131.82;57.28;;;;;;;;;;4415729;32;19950;-71
2022/01/26 03:22:20;;;;;;;;;;;;;;;;;;4407088;32;20479;-72
2022/01/26 03:30:04;;;;;;;130.80;58.20;;;;;;;;;;4406070;32;20333;-71
2022/01/26 03:35:04;;;;;;;129.00;57.92;;;;;;;;;;4410918;32;20473;-72
2022/01/26 03:37:37;;;;;;;;;;;;;;;;;;4420102;32;20030;-70
2022/01/26 03:40:10;;;;;;;145.73;57.62;;;;;;;;;;4405884;32;19937;-72
2022/01/26 03:42:36;;;;;;;132.18;58.70;;;;;;;;;;4421781;32;20089;-71
2022/01/26 03:45:01;;;;;;;;;;;;;;;;;;4406153;32;20030;-71
2022/01/26 03:47:26;;;;;;;140.88;60.83;;;;;;;;;;4419767;32;19941;-71
2022/01/26 03:49:51;;;;;;;;;;;;;;;;;;4412213;32;20057;-71
2022/01/26 03:52:16;;;;;;;143.93;58.55;;;;;;;;;;4391166;32;20298;-71
2022/01/26 03:54:41;;;;;;;;;;;;;;;;;;4391205;32;20053;-70
2022/01/26 03:57:07;;;;;;;139.20;58.00;;;;;;;;;;4405874;32;19983;-71
2022/01/26 03:59:32;;;;;;;;;;;;;;;;;;4414904;32;20030;-71
2022/01/26 04:01:57;;;;;;;135.30;57.45;;;;;;;;;;4419943;32;19941;-71
2022/01/26 04:04:22;;;;;;;;;;;;;;;;;;4407754;32;20152;-72
2022/01/26 04:06:47;;;;;;;150.57;63.10;;;;;;;;;;4419641;32;19945;-71
2022/01/26 04:09:15;;;;;;;;;;;;;;;;;;4400943;32;20031;-71
2022/01/26 04:11:44;;;;;;;144.32;59.88;;;;;;;;;;4406843;32;19929;-72
2022/01/26 04:14:11;;;;;;;144.70;62.08;;;;;;;;;;4405863;32;20094;-71
2022/01/26 04:16:37;;;;;;;141.43;60.33;;;;;;;;;;4408783;32;20022;-72
2022/01/26 04:19:02;;;;;;;;;;;;;;;;;;4408432;32;20131;-71
2022/01/26 04:26:48;;;;;;;135.35;60.33;;;;;;;;;;4423742;32;20030;-72
2022/01/26 04:29:20;;;;;;;142.43;62.28;;;;;;;;;;4423382;32;20398;-71
2022/01/26 04:31:45;;;;;;;141.82;57.90;;;;;;;;;;4422327;32;20007;-72
2022/01/26 04:34:10;;;;;;;;;;;;;;;;;;4410312;32;20021;-71
2022/01/26 04:36:49;;;;;;;141.68;58.97;;;;;;;;;;4423504;32;20371;-71
2022/01/26 04:39:19;;;;;;;144.40;58.80;;;;;;;;;;4407368;32;20359;-72
2022/01/26 04:41:56;;;;;;;144.10;59.97;;;;;;;;;;4393448;32;20411;-71
2022/01/26 04:44:27;;;;;;;143.30;60.22;;;;;;;;;;4407211;32;20410;-71
2022/01/26 04:46:53;;;;;;;143.13;61.53;;;;;;;;;;4408365;32;20101;-71
2022/01/26 04:49:18;;;;;;;;;;;;;;;;;;4404521;32;20460;-71
2022/01/26 04:51:44;;;;;;;140.75;59.85;;;;;;;;;;4424158;32;19934;-72
2022/01/26 04:54:09;;;;;;;157.43;62.47;;;;;;;;;;4423458;32;20110;-71
2022/01/26 04:56:34;;;;;;;;;;;;;;;;;;4423881;32;20026;-71
2022/01/26 04:58:59;;;;;;;158.82;63.03;;;;;;;;;;4423446;32;19937;-71
2022/01/26 05:01:25;;;;;;;;;;;;;;;;;;4409910;32;20026;-71
2022/01/26 05:03:50;;;;;;;156.27;59.97;;;;;;;;;;4408139;32;20023;-71
2022/01/26 05:06:15;;;;;;;;;;;;;;;;;;4423756;32;20025;-72
2022/01/26 05:08:40;;;;;;;167.13;63.38;;;;;;;;;;4407726;32;19940;-71
2022/01/26 05:11:07;;;;;;;;;;;;;;;;;;4410163;32;20134;-71
2022/01/26 05:13:32;;;;;;;163.35;62.47;;;;;;;;;;4422209;32;19937;-72
2022/01/26 05:15:57;;;;;;;;;;;;;;;;;;4423281;32;20093;-71
2022/01/26 05:18:24;;;;;;;152.85;62.22;;;;;;;;;;4422453;32;19988;-71
2022/01/26 05:20:49;;;;;;;162.35;63.00;;;;;;;;;;4422939;32;20030;-72
2022/01/26 05:23:14;;;;;;;;;;;;;;;;;;4408739;32;20022;-71
2022/01/26 05:25:40;;;;;;;163.43;61.13;;;;;;;;;;4421340;32;19929;-71
2022/01/26 05:28:05;;;;;;;;;;;;;;;;;;4423439;32;20056;-70
2022/01/26 05:30:30;;;;;;;156.00;63.13;;;;;;;;;;4407764;32;19952;-71
2022/01/26 05:32:55;;;;;;;;;;;;;;;;;;4422331;32;20057;-71
2022/01/26 05:35:21;;;;;;;159.43;62.08;;;;;;;;;;4421328;32;19945;-71
2022/01/26 05:37:46;;;;;;;157.52;62.25;;;;;;;;;;4422441;32;20522;-72
2022/01/26 05:40:12;;;;;;;;;;;;;;;;;;4422023;32;20358;-70
2022/01/26 05:42:37;;;;;;;169.55;61.88;;;;;;;;;;4421170;32;20356;-73
2022/01/26 05:45:05;;;;;;;;;;;;;;;;;;4421710;32;20021;-71
2022/01/26 05:47:32;;;;;;;145.93;60.03;;;;;;;;;;4407350;32;19947;-71
2022/01/26 05:49:58;;;;;;;150.80;60.60;;;;;;;;;;4421574;32;20054;-71
2022/01/26 05:52:23;;;;;;;;;;;;;;;;;;4421892;32;20018;-70
2022/01/26 05:54:48;;;;;;;128.18;55.00;;;;;;;;;;4421704;32;19987;-71
2022/01/26 05:57:13;;;;;;;;;;;;;;;;;;4423242;32;20026;-71
2022/01/26 05:59:38;;;;;;;105.20;50.58;;;;;;;;;;4420815;32;19941;-71
2022/01/26 06:02:04;;;;;;;95.05;45.55;;;;;;;;;;4421128;32;20144;-71
2022/01/26 06:04:29;;;;;;;90.10;44.83;;;;;;;;;;4420918;32;20166;-71
2022/01/26 06:06:55;;;;;;;;;;;;;;;;;;4406880;32;20087;-70
2022/01/26 06:09:20;;;;;;;81.15;40.90;;;;;;;;;;4407211;32;19957;-70
2022/01/26 06:11:45;;;;;;;;;;;;;;;;;;4408462;32;20074;-71
2022/01/26 06:14:10;;;;;;;85.12;41.67;;;;;;;;;;4420416;32;19937;-71
2022/01/26 06:16:35;;;;;;;;;;;;;;;;;;4406952;32;20479;-70
2022/01/26 06:19:01;;;;;;;81.85;41.90;;;;;;;;;;4420590;32;19943;-71
2022/01/26 06:21:26;;;;;;;;;;;;;;;;;;4421819;32;20049;-70
2022/01/26 06:23:51;;;;;;;86.03;43.20;;;;;;;;;;4420544;32;19971;-70
2022/01/26 06:26:16;;;;;;;86.53;44.42;;;;;;;;;;4421603;32;20246;-72
2022/01/26 06:28:41;;;;;;;94.95;45.75;;;;;;;;;;4406689;32;20155;-71
2022/01/26 06:31:10;;;;;;;;;;;;;;;;;;4422334;32;20065;-71
2022/01/26 06:33:38;;;;;;;92.68;46.53;;;;;;;;;;4419549;32;19978;-70
2022/01/26 06:36:04;;;;;;;89.13;45.95;;;;;;;;;;4420230;32;20075;-71
2022/01/26 06:38:29;;;;;;;;;;;;;;;;;;4421486;32;20042;-71
2022/01/26 06:40:58;;;;;;;82.55;43.58;;;;;;;;;;4421856;32;19937;-71
2022/01/26 06:43:27;;;;;;;85.90;41.10;;;;;;;;;;4420287;32;20025;-71
2022/01/26 06:46:01;;;;;;;75.68;39.83;;;;;;;;;;4406030;32;20038;-71
2022/01/26 06:48:45;;;;;;;76.07;38.40;;;;;;;;;;4420966;32;20075;-70
2022/01/26 06:51:11;;;;;;;72.70;39.00;;;;;;;;;;4421871;32;20078;-70
2022/01/26 06:53:36;;;;;;;;;;;;;;;;;;4406343;32;20022;-71
2022/01/26 06:56:01;;;;;;;69.37;36.05;;;;;;;;;;4421245;32;20312;-71
2022/01/26 06:58:26;;;;;;;;;;;;;;;;;;4420958;32;20050;-71
2022/01/26 07:00:52;;;;;;;77.07;37.45;;;;;;;;;;4419901;32;20299;-71
2022/01/26 07:03:17;;;;;;;;;;;;;;;;;;4420280;32;20053;-71
2022/01/26 07:05:42;;;;;;;77.93;37.75;;;;;;;;;;4405375;32;19937;-71
2022/01/26 07:08:07;;;;;;;;;;;;;;;;;;4406331;32;20411;-71
2022/01/26 07:10:32;;;;;;;74.20;37.70;;;;;;;;;;4420477;32;19933;-71
2022/01/26 07:12:57;;;;;;;;;;;;;;;;;;4410102;32;20176;-71
2022/01/26 07:23:35;;;;;;;83.68;40.17;;;;;;;;;;4404693;32;20034;-70
2022/01/26 07:26:01;;;;;;;;;;;;;;;;;;4405021;32;20078;-71
2022/01/26 07:28:27;;;;;;;88.55;44.13;;;;;;;;;;4405356;32;19948;-71
2022/01/26 07:30:52;;;;;;;89.07;43.08;;;;;;;;;;4411090;32;20328;-70
2022/01/26 07:33:17;;;;;;;;;;;;;;;;;;4406174;32;20402;-72
2022/01/26 07:35:43;;;;;;;88.78;40.85;;;;;;;;;;4418817;32;19933;-71
2022/01/26 07:38:08;;;;;;;;;;;;;;;;;;4419335;32;20403;-72
2022/01/26 07:40:33;;;;;;;68.18;34.75;;;;;;;;;;4419619;32;19933;-72
2022/01/26 07:42:58;;;;;;;;;;;;;;;;;;4407306;32;20018;-72
2022/01/26 07:45:23;;;;;;;75.00;36.15;;;;;;;;;;4405650;32;19942;-72
2022/01/26 07:47:52;;;;;;;80.85;39.65;;;;;;;;;;4420265;32;20578;-72
2022/01/26 07:50:18;;;;;;;73.93;38.72;;;;;;;;;;4398757;32;20088;-72
2022/01/26 07:52:43;;;;;;;;;;;;;;;;;;4405536;32;20161;-71
2022/01/26 07:55:10;;;;;;;78.68;38.33;;;;;;;;;;4409421;32;20334;-72
2022/01/26 07:57:35;;;;;;;75.15;38.28;;;;;;;;;;4420702;32;20034;-73
2022/01/26 08:00:00;;;;;;;;;;;;;;;;;;4421896;32;20052;-72
2022/01/26 08:02:26;;;;;;;75.70;35.92;;;;;;;;;;4422056;32;19990;-72
2022/01/26 08:04:51;;;;;;;;;;;;;;;;;;4408676;32;20454;-71
2022/01/26 08:07:16;;;;;;;77.43;38.38;;;;;;;;;;4420696;32;19952;-71
2022/01/26 08:09:43;;;;;;;;;;;;;;;;;;4409864;32;20034;-71
2022/01/26 08:12:12;;;;;;;80.32;42.55;;;;;;;;;;4421889;32;19989;-71
2022/01/26 08:14:38;;;;;;;76.55;40.12;;;;;;;;;;4409358;32;20058;-71
2022/01/26 08:17:03;;;;;;;;;;;;;;;;;;4418554;32;20385;-71
2022/01/26 08:19:28;;;;;;;83.60;41.22;;;;;;;;;;4397410;32;20006;-71
2022/01/26 08:21:58;;;;;;;;;;;;;;;;;;4419127;32;20117;-70
2022/01/26 08:24:24;;;;;;;88.05;40.55;;;;;;;;;;4409210;32;19933;-72
2022/01/26 08:26:50;;;;;;;;;;;;;;;;;;4408627;32;20074;-71
2022/01/26 08:29:24;;;;;;;87.65;41.88;;;;;;;;;;4402663;32;19941;-71
2022/01/26 08:31:49;;;;;;;80.45;37.63;;;;;;;;;;4421313;32;20081;-71
2022/01/26 08:34:15;;;;;;;;;;;;;;;;;;4416063;32;20022;-71
2022/01/26 08:36:40;;;;;;;79.20;37.58;;;;;;;;;;4420745;32;19948;-69
2022/01/26 08:39:05;;;;;;;;;;;;;;;;;;4409295;32;20049;-70
2022/01/26 08:41:30;;;;;;;70.05;35.47;;;;;;;;;;4421275;32;19945;-69
2022/01/26 08:43:55;;;;;;;;;;;;;;;;;;4408196;32;20471;-71
2022/01/26 08:46:21;;;;;;;71.90;31.58;;;;;;;;;;4404090;32;19950;-70
2022/01/26 08:48:46;;;;;;;;;;;;;;;;;;4413556;32;20093;-71
2022/01/26 08:51:11;;;;;;;62.70;30.30;;;;;;;;;;4421593;32;19985;-70
2022/01/26 08:53:36;;;;;;;;;;;;;;;;;;4421208;32;20151;-70
2022/01/26 08:56:01;;;;;;;73.00;30.73;;;;;;;;;;4410712;32;19945;-70
2022/01/26 08:58:26;;;;;;;;;;;;;;;;;;4395007;32;20062;-71
2022/01/26 09:00:53;;;;;;;67.12;29.87;;;;;;;;;;4416590;32;20020;-71
2022/01/26 09:03:18;;;;;;;61.88;29.08;;;;;;;;;;4406756;32;20046;-70
2022/01/26 09:05:43;;;;;;;;;;;;;;;;;;4423613;32;20270;-70
2022/01/26 09:08:08;;;;;;;68.15;31.67;;;;;;;;;;4421590;32;19977;-70
2022/01/26 09:10:34;;;;;;;62.77;31.03;;;;;;;;;;4407774;32;20157;-71
2022/01/26 09:13:00;;;;;;;62.50;31.55;;;;;;;;;;4423474;32;20575;-70
2022/01/26 09:15:28;;;;;;;;;;;;;;;;;;4423050;32;20029;-70
2022/01/26 09:17:54;;;;;;;67.65;32.97;;;;;;;;;;4422049;32;19949;-70
2022/01/26 09:20:19;;;;;;;;;;;;;;;;;;4409865;32;20027;-71
2022/01/26 09:22:44;;;;;;;69.85;33.10;;;;;;;;;;4407359;32;19984;-71
2022/01/26 09:25:10;;;;;;;;;;;;;;;;;;4421735;32;20334;-71
2022/01/26 09:27:36;;;;;;;67.75;32.67;;;;;;;;;;4408649;32;20020;-71
2022/01/26 09:30:02;;;;;;;65.30;31.85;;;;;;;;;;4407458;32;20118;-71
2022/01/26 09:32:27;;;;;;;78.78;35.70;;;;;;;;;;4421749;32;20079;-71
2022/01/26 09:34:53;;;;;;;;;;;;;;;;;;4407763;32;20030;-71
2022/01/26 09:37:18;;;;;;;70.22;33.70;;;;;;;;;;4420892;32;19960;-69
2022/01/26 09:39:44;;;;;;;;;;;;;;;;;;4421719;32;20365;-70
2022/01/26 09:42:09;;;;;;;71.60;33.15;;;;;;;;;;4420852;32;19933;-70
2022/01/26 09:44:34;;;;;;;;;;;;;;;;;;4423075;32;20189;-71
2022/01/26 09:47:00;;;;;;;72.90;33.40;;;;;;;;;;4406861;32;19992;-70
2022/01/26 09:49:33;;;;;;;64.62;30.55;;;;;;;;;;4421044;32;20431;-70
2022/01/26 09:52:05;;;;;;;67.35;32.00;;;;;;;;;;4421444;32;20079;-70
2022/01/26 09:54:31;;;;;;;68.57;31.80;;;;;;;;;;4409035;32;20397;-70
2022/01/26 09:57:00;;;;;;;;;;;;;;;;;;4422196;32;20094;-70
2022/01/26 09:59:25;;;;;;;73.97;31.90;;;;;;;;;;4421236;32;19940;-71
2022/01/26 10:01:51;;;;;;;65.03;32.35;;;;;;;;;;4420674;32;20049;-71
2022/01/26 10:04:16;;;;;;;;;;;;;;;;;;4422138;32;20137;-71
2022/01/26 10:06:41;;;;;;;64.35;31.02;;;;;;;;;;4420891;32;19937;-71
2022/01/26 10:09:38;;;;;;;;;;;;;;;;;;4407392;32;20136;-69
2022/01/26 10:17:35;;;;;;;53.28;29.25;;;;;;;;;;4422329;32;20044;-71
2022/01/26 10:20:03;;;;;;;58.35;30.08;;;;;;;;;;4406621;32;20296;-71
2022/01/26 10:22:29;;;;;;;57.70;29.92;;;;;;;;;;4406374;32;20022;-71
2022/01/26 10:25:02;;;;;;;53.87;29.35;;;;;;;;;;4419764;32;20315;-71
2022/01/26 10:27:43;;;;;;;54.95;31.10;;;;;;;;;;4406240;32;20151;-71
2022/01/26 10:30:11;;;;;;;55.17;30.37;;;;;;;;;;4419984;32;20052;-71
2022/01/26 10:32:36;;;;;;;50.63;28.10;;;;;;;;;;4406069;32;20018;-71
2022/01/26 10:35:02;;;;;;;;;;;;;;;;;;4406172;32;20061;-71
2022/01/26 10:37:27;;;;;;;53.10;28.98;;;;;;;;;;4406518;32;20430;-71
2022/01/26 10:39:55;;;;;;;;;;;;;;;;;;4420090;32;20022;-69
2022/01/26 10:42:23;;;;;;;53.90;30.40;;;;;;;;;;4421635;32;20362;-70
2022/01/26 10:45:14;;;;;;;47.80;29.08;;;;;;;;;;4419532;32;20423;-70
2022/01/26 10:47:45;;;;;;;57.50;29.33;;;;;;;;;;4421857;32;20014;-71
2022/01/26 10:53:07;;;;;;;62.70;31.00;;;;;;;;;;4421431;32;20133;-70
2022/01/26 10:55:33;;;;;;;57.33;30.92;;;;;;;;;;4406353;32;20052;-71
2022/01/26 10:57:59;;;;;;;;;;;;;;;;;;4419994;32;20038;-70
2022/01/26 11:00:24;;;;;;;56.25;28.87;;;;;;;;;;4421520;32;20083;-71
2022/01/26 11:02:49;;;;;;;;;;;;;;;;;;4407808;32;20192;-70
2022/01/26 11:05:16;;;;;;;52.20;30.08;;;;;;;;;;4406299;32;20268;-69
2022/01/26 11:07:43;;;;;;;47.67;28.00;;;;;;;;;;4420213;32;20129;-70
2022/01/26 11:10:09;;;;;;;57.25;28.33;;;;;;;;;;4420707;32;20129;-70
2022/01/26 11:12:34;;;;;;;;;;;;;;;;;;4420463;32;20022;-69
2022/01/26 11:15:04;;;;;;;49.76;26.68;;;;;;;;;;4406174;32;19939;-71
2022/01/26 11:17:33;;;;;;;52.53;26.60;;;;;;;;;;4420267;32;20082;-71
2022/01/26 11:19:59;;;;;;;41.92;26.87;;;;;;;;;;4419550;32;20026;-71
2022/01/26 11:22:31;;;;;;;;;;;;;;;;;;4407310;32;20064;-70
2022/01/26 11:25:07;;;;;;;52.90;24.67;;;;;;;;;;4422869;32;19942;-70
2022/01/26 11:27:33;;;;;;;36.97;22.75;;;;;;;;;;4422873;32;20089;-69
2022/01/26 11:30:00;;;;;;;47.97;25.55;;;;;;;;;;4410369;32;20030;-70
2022/01/26 11:32:33;;;;;;;40.22;25.85;;;;;;;;;;4408645;32;20045;-70
2022/01/26 11:35:00;;;;;;;39.17;23.33;;;;;;;;;;4408570;32;20041;-69
2022/01/26 11:37:27;;;;;;;40.70;23.08;;;;;;;;;;4422202;32;20026;-70
2022/01/26 11:45:23;;;;;;;39.40;24.02;;;;;;;;;;4423635;32;20044;-70
2022/01/26 11:48:01;;;;;;;48.63;23.35;;;;;;;;;;4424159;32;20064;-70
2022/01/26 11:50:27;;;;;;;42.42;23.10;;;;;;;;;;4423950;32;20055;-70
2022/01/26 11:52:52;;;;;;;;;;;;;;;;;;4408717;32;20022;-69
2022/01/26 11:55:21;;;;;;;37.00;20.67;;;;;;;;;;4422758;32;19937;-69
2022/01/26 11:57:52;;;;;;;36.92;21.70;;;;;;;;;;4424025;32;20052;-70
2022/01/26 12:00:48;;;;;;;35.60;21.12;;;;;;;;;;4422926;32;20398;-69
2022/01/26 12:03:21;;;;;;;36.70;20.77;;;;;;;;;;4422505;32;20404;-70
2022/01/26 12:05:47;;;;;;;38.42;21.42;;;;;;;;;;4422695;32;20025;-69
2022/01/26 12:08:12;;;;;;;43.83;22.62;;;;;;;;;;4408326;32;20042;-70
2022/01/26 12:10:38;;;;;;;;;;;;;;;;;;4423378;32;20116;-70
2022/01/26 12:13:12;;;;;;;33.22;19.45;;;;;;;;;;4421944;32;20359;-70
2022/01/26 12:15:50;;;;;;;34.88;20.08;;;;;;;;;;4408652;32;20377;-70
2022/01/26 12:36:56;;;;;;;;;;;;;;;;;;4422891;32;20034;-70
2022/01/26 12:41:14;;;;;;;40.35;21.08;;;;;;;;;;4421825;32;19974;-70
2022/01/26 12:42:14;;;;;;;36.22;20.20;;;;;;;;;;4422838;32;20018;-70
2022/01/26 12:44:39;;;;;;;35.95;20.35;;;;;;;;;;4408028;32;20107;-70
2022/01/26 12:47:04;;;;;;;;;;;;;;;;;;4422183;32;20029;-70
2022/01/26 12:49:31;;;;;;;35.17;19.48;;;;;;;;;;4408503;32;19933;-71
2022/01/26 12:51:56;;;;;;;36.15;18.90;;;;;;;;;;4409519;32;20038;-70
2022/01/26 12:54:21;;;;;;;;;;;;;;;;;;4422742;32;20045;-70
2022/01/26 12:56:47;;;;;;;34.20;17.98;;;;;;;;;;4421503;32;19933;-70
2022/01/26 12:59:12;;;;;;;;;;;;;;;;;;4421925;32;20121;-70
2022/01/26 13:01:38;;;;;;;32.33;18.42;;;;;;;;;;4421803;32;19964;-70
2022/01/26 13:04:03;;;;;;;;;;;;;;;;;;4421322;32;20089;-70
2022/01/26 13:06:31;;;;;;;35.42;18.73;;;;;;;;;;4407751;32;19937;-72
2022/01/26 13:08:57;;;;;;;34.58;19.00;;;;;;;;;;4393429;32;20145;-71
2022/01/26 13:11:28;;;;;;;34.50;20.45;;;;;;;;;;4406732;32;20034;-71
2022/01/26 13:14:19;;;;;;;32.22;19.50;;;;;;;;;;4392089;32;20030;-70
2022/01/26 13:17:05;;;;;;;35.80;21.23;;;;;;;;;;4405845;32;20068;-70
2022/01/26 13:19:44;;;;;;;37.30;20.83;;;;;;;;;;4406041;32;20114;-71
2022/01/26 13:30:11;;;;;;;29.55;17.60;;;;;;;;;;4407105;32;20044;-70
2022/01/26 13:33:08;;;;;;;38.20;19.05;;;;;;;;;;4406005;32;20034;-70
2022/01/26 13:40:59;;;;;;;34.70;20.12;;;;;;;;;;4406615;32;20042;-71
2022/01/26 13:57:13;;;;;;;40.05;19.37;;;;;;;;;;4406311;32;20022;-71
2022/01/26 13:59:52;;;;;;;38.42;20.08;;;;;;;;;;4391631;32;20490;-71
2022/01/26 14:02:17;;;;;;;34.80;20.25;;;;;;;;;;4406981;32;20080;-70
2022/01/26 14:04:42;;;;;;;;;;;;;;;;;;4407442;32;20475;-71
2022/01/26 14:07:07;;;;;;;37.70;19.15;;;;;;;;;;4406341;32;19937;-71
2022/01/26 14:09:33;;;;;;;36.30;20.60;;;;;;;;;;4405335;32;20129;-71
2022/01/26 14:12:00;;;;;;;;;;;;;;;;;;4406634;32;20320;-71
2022/01/26 14:14:32;;;;;;;39.90;19.00;;;;;;;;;;4405930;32;19938;-71
2022/01/26 14:17:00;;;;;;;44.17;21.65;;;;;;;;;;4406039;32;20022;-71
2022/01/26 14:19:55;;;;;;;34.58;20.42;;;;;;;;;;4406799;32;20026;-70
2022/01/26 14:27:23;;;;;;;;;;;;;;;;;;4405299;32;20064;-71
2022/01/26 14:30:17;;;;;;;31.17;18.83;;;;;;;;;;4391231;32;19930;-72
2022/01/26 14:35:41;;;;;;;39.17;21.20;;;;;;;;;;4406051;32;20105;-70
2022/01/26 14:50:56;;;;;;;40.25;21.17;;;;;;;;;;4406252;32;20046;-70
2022/01/26 15:20:35;;;;;;;66.20;34.25;;;;;;;;;;4405508;32;20071;-71
2022/01/26 15:33:23;;;;;;;80.55;41.10;;;;;;;;;;4404487;32;20057;-70
2022/01/26 16:07:55;;;;;;;78.32;42.33;;;;;;;;;;4404019;32;20070;-71
2022/01/26 17:26:32;;;;;;;83.22;43.40;;;;;;;;;;4406883;32;20175;-70
2022/01/26 18:15:17;;;;;;;66.60;37.42;;;;;;;;;;4405859;32;20060;-71
2022/01/26 18:38:40;;;;;;;;;;;;;;;;;;4405819;32;20049;-71
2022/01/26 18:51:45;;;;;;;62.30;35.10;;;;;;;;;;4404734;32;20070;-70
2022/01/26 18:54:12;;;;;;;65.40;36.80;;;;;;;;;;4391927;32;20317;-71
2022/01/26 18:56:39;;;;;;;70.40;35.85;;;;;;;;;;4405048;32;20030;-70
2022/01/26 18:59:05;;;;;;;65.45;34.42;;;;;;;;;;4406300;32;20106;-70
2022/01/26 19:01:30;;;;;;;;;;;;;;;;;;4405644;32;20026;-71
2022/01/26 19:03:55;;;;;;;66.35;36.55;;;;;;;;;;4407171;32;20337;-70
2022/01/26 19:06:20;;;;;;;;;;;;;;;;;;4392157;32;20152;-70
2022/01/26 19:08:46;;;;;;;70.18;36.40;;;;;;;;;;4404581;32;19961;-71
2022/01/26 19:11:12;;;;;;;;;;;;;;;;;;4405688;32;20118;-71
2022/01/26 19:13:39;;;;;;;75.20;38.35;;;;;;;;;;4411037;32;19994;-71
2022/01/26 19:16:12;;;;;;;79.78;39.13;;;;;;;;;;4407119;32;20049;-71
2022/01/26 19:19:24;;;;;;;75.68;39.40;;;;;;;;;;4420016;32;20021;-69
2022/01/26 19:24:42;;;;;;;65.45;35.08;;;;;;;;;;4420168;32;20049;-72
2022/01/26 19:27:14;;;;;;;67.70;37.33;;;;;;;;;;4419207;32;20195;-71
2022/01/26 19:53:07;;;;;;;67.50;34.47;;;;;;;;;;4408756;32;19961;-70
2022/01/26 19:55:32;;;;;;;;;;;;;;;;;;4414082;32;20025;-71
2022/01/26 19:57:57;;;;;;;66.26;35.46;;;;;;;;;;4408704;32;19941;-70
2022/01/26 20:00:22;;;;;;;;;;;;;;;;;;4410111;32;20478;-70
2022/01/26 20:02:49;;;;;;;73.60;36.63;;;;;;;;;;4424515;32;20326;-71
2022/01/26 20:05:16;;;;;;;71.37;36.22;;;;;;;;;;4422481;32;20394;-71
2022/01/26 20:07:42;;;;;;;66.97;36.05;;;;;;;;;;4405895;32;20050;-71
2022/01/26 20:10:10;;;;;;;73.30;37.13;;;;;;;;;;4402424;32;20390;-70
2022/01/26 20:12:48;;;;;;;65.90;33.85;;;;;;;;;;4423345;32;20033;-71
2022/01/26 20:15:13;;;;;;;68.62;34.72;;;;;;;;;;4408040;32;20023;-71
2022/01/26 20:17:42;;;;;;;;;;;;;;;;;;4424513;32;20095;-71
2022/01/26 20:20:08;;;;;;;67.55;33.45;;;;;;;;;;4422877;32;19938;-70
2022/01/26 20:22:33;;;;;;;;;;;;;;;;;;4421600;32;20415;-69
2022/01/26 20:24:58;;;;;;;59.10;31.73;;;;;;;;;;4405092;32;19976;-70
2022/01/26 20:27:24;;;;;;;;;;;;;;;;;;4423945;32;20159;-71
2022/01/26 20:29:58;;;;;;;67.93;31.83;;;;;;;;;;4422216;32;19933;-70
2022/01/26 20:32:23;;;;;;;58.10;30.12;;;;;;;;;;4422084;32;20010;-71
2022/01/26 20:34:50;;;;;;;;;;;;;;;;;;4423818;32;20126;-71
2022/01/26 20:37:15;;;;;;;53.65;26.25;;;;;;;;;;4422650;32;19945;-71
2022/01/26 20:39:40;;;;;;;;;;;;;;;;;;4410053;32;20052;-71
2022/01/26 20:42:05;;;;;;;40.25;24.37;;;;;;;;;;4405009;32;20375;-72
2022/01/26 20:44:30;;;;;;;;;;;;;;;;;;4422380;32;20018;-71
2022/01/26 20:46:56;;;;;;;53.10;26.75;;;;;;;;;;4400801;32;20018;-71
2022/01/26 20:49:21;;;;;;;;;;;;;;;;;;4421209;32;20022;-71
2022/01/26 20:51:46;;;;;;;36.75;21.55;;;;;;;;;;4407985;32;19962;-71
2022/01/26 20:54:13;;;;;;;;;;;;;;;;;;4408431;32;20116;-71
2022/01/26 20:56:38;;;;;;;31.85;17.42;;;;;;;;;;4408500;32;19937;-70
2022/01/26 20:59:03;;;;;;;;;;;;;;;;;;4408711;32;20018;-71
2022/01/26 21:01:28;;;;;;;31.08;18.05;;;;;;;;;;4420578;32;19990;-71
2022/01/26 21:03:53;;;;;;;;;;;;;;;;;;4417041;32;20026;-72
2022/01/26 21:06:19;;;;;;;28.20;16.77;;;;;;;;;;4399907;32;20046;-71
2022/01/26 21:08:44;;;;;;;;;;;;;;;;;;4401795;32;20034;-71
2022/01/26 21:11:09;;;;;;;23.12;14.43;;;;;;;;;;4412341;32;19978;-70
2022/01/26 21:13:36;;;;;;;;;;;;;;;;;;4409021;32;20018;-72
2022/01/26 21:16:01;;;;;;;31.70;15.32;;;;;;;;;;4416911;32;19948;-72
2022/01/26 21:18:30;;;;;;;;;;;;;;;;;;4408227;32;20388;-72
2022/01/26 21:20:55;;;;;;;30.33;16.90;;;;;;;;;;4408107;32;19944;-72
2022/01/26 21:23:20;;;;;;;;;;;;;;;;;;4422038;32;20086;-71
2022/01/26 21:25:45;;;;;;;27.65;16.77;;;;;;;;;;4408431;32;19955;-70
2022/01/26 21:28:10;;;;;;;;;;;;;;;;;;4422426;32;20122;-71
2022/01/26 21:30:36;;;;;;;27.00;15.57;;;;;;;;;;4407535;32;19941;-72
2022/01/26 21:33:02;;;;;;;;;;;;;;;;;;4400532;32;20026;-71
2022/01/26 21:35:27;;;;;;;26.67;16.25;;;;;;;;;;4392138;32;19930;-71
2022/01/26 21:37:53;;;;;;;;;;;;;;;;;;4408117;32;20366;-72
2022/01/26 21:40:19;;;;;;;31.35;17.08;;;;;;;;;;4406211;32;20439;-71
2022/01/26 21:42:44;;;;;;;;;;;;;;;;;;4407955;32;20022;-71
2022/01/26 21:45:09;;;;;;;31.45;15.90;;;;;;;;;;4420885;32;19965;-73
2022/01/26 21:47:34;;;;;;;;;;;;;;;;;;4413273;32;20069;-72
2022/01/26 21:49:59;;;;;;;24.83;14.10;;;;;;;;;;4412713;32;19934;-71
2022/01/26 21:52:25;;;;;;;;;;;;;;;;;;4410268;32;20030;-72
2022/01/26 21:54:50;;;;;;;35.75;15.95;;;;;;;;;;4397470;32;19948;-71
2022/01/26 21:57:16;;;;;;;;;;;;;;;;;;4399777;32;20034;-72
2022/01/26 21:59:41;;;;;;;26.67;16.12;;;;;;;;;;4413431;32;20293;-72
2022/01/26 22:02:06;;;;;;;;;;;;;;;;;;4413474;32;20093;-71
2022/01/26 22:04:31;;;;;;;28.75;14.38;;;;;;;;;;4402760;32;19957;-71